Time;durP1;ratioP1;P1;durP2;ratioP2;P2;SDS_P1;SDS_P2;PMS_P1;PMS_P2;Temp;Humidity;BMP_temperature;BMP_pressure;BME280_temperature;BME280_humidity;BME280_pressure;Samples;Min_cycle;Max_cycle;Signal;HPM_P1;HPM_P2
2023/11/14 00:02:20;;;;;;;39.53;6.25;;;12.00;99.90;;;;;;5072050;28;20057;-79
2023/11/14 00:04:47;;;;;;;32.30;5.30;;;12.00;99.90;;;;;;5064060;28;20045;-80
2023/11/14 00:07:15;;;;;;;27.23;4.88;;;12.00;99.90;;;;;;5070113;28;20094;-80
2023/11/14 00:09:42;;;;;;;44.78;7.78;;;12.00;99.90;;;;;;5058675;28;20144;-80
2023/11/14 00:12:13;;;;;;;41.53;5.95;;;12.00;99.90;;;;;;5058689;28;20077;-79
2023/11/14 00:14:44;;;;;;;33.53;5.97;;;12.00;99.90;;;;;;5069107;28;20048;-79
2023/11/14 00:17:12;;;;;;;29.17;5.07;;;12.00;99.90;;;;;;5073459;28;20119;-78
2023/11/14 00:19:39;;;;;;;28.95;5.80;;;12.00;99.90;;;;;;5065607;28;20103;-79
2023/11/14 00:22:10;;;;;;;34.65;4.93;;;12.00;99.90;;;;;;5061921;28;20300;-79
2023/11/14 00:24:37;;;;;;;35.30;7.13;;;12.00;99.90;;;;;;5072200;28;20052;-80
2023/11/14 00:27:04;;;;;;;23.92;5.40;;;12.00;99.90;;;;;;5073093;28;20041;-81
2023/11/14 00:29:31;;;;;;;32.05;5.65;;;12.00;99.90;;;;;;5072476;28;20597;-79
2023/11/14 00:31:59;;;;;;;29.55;5.20;;;12.00;99.90;;;;;;5071122;28;20083;-80
2023/11/14 00:34:26;;;;;;;38.78;5.18;;;11.90;99.90;;;;;;5072823;28;20071;-80
2023/11/14 00:36:53;;;;;;;29.13;5.80;;;11.90;99.90;;;;;;5054896;28;20162;-78
2023/11/14 00:39:20;;;;;;;36.00;6.55;;;12.00;99.90;;;;;;5065541;28;20099;-81
2023/11/14 00:41:47;;;;;;;29.75;6.10;;;12.00;99.90;;;;;;5077838;28;20506;-81
2023/11/14 00:44:46;;;;;;;38.72;9.38;;;11.90;99.90;;;;;;5072272;28;20530;-79
2023/11/14 00:47:12;;;;;;;36.80;4.90;;;12.00;99.90;;;;;;5071663;28;20491;-79
2023/11/14 00:49:39;;;;;;;25.45;5.80;;;12.00;99.90;;;;;;5070442;28;20373;-78
2023/11/14 00:52:06;;;;;;;69.03;10.70;;;12.00;99.90;;;;;;5072916;28;20106;-77
2023/11/14 00:54:33;;;;;;;40.70;6.05;;;12.00;99.90;;;;;;5067627;28;20063;-77
2023/11/14 00:57:00;;;;;;;36.65;5.25;;;12.00;99.90;;;;;;5068929;28;20484;-78
2023/11/14 00:59:26;;;;;;;32.58;5.32;;;12.00;99.90;;;;;;5072535;28;20515;-78
2023/11/14 01:01:54;;;;;;;28.17;5.65;;;12.00;99.90;;;;;;5074288;28;20044;-79
2023/11/14 01:04:21;;;;;;;27.42;5.85;;;12.00;99.90;;;;;;5073487;28;20059;-78
2023/11/14 01:06:48;;;;;;;32.58;4.97;;;12.10;99.90;;;;;;5073932;28;20045;-79
2023/11/14 01:09:15;;;;;;;29.70;6.28;;;12.00;99.90;;;;;;5073888;28;20052;-78
2023/11/14 01:11:42;;;;;;;52.80;6.55;;;12.10;99.90;;;;;;5054331;28;20533;-74
2023/11/14 01:14:08;;;;;;;36.58;5.60;;;12.00;99.90;;;;;;5071817;28;20095;-78
2023/11/14 01:16:35;;;;;;;36.80;7.35;;;12.00;99.90;;;;;;5071835;28;20044;-79
2023/11/14 01:19:02;;;;;;;28.42;5.35;;;12.00;99.90;;;;;;5072113;28;20075;-78
2023/11/14 01:21:31;;;;;;;40.80;6.88;;;12.00;99.90;;;;;;5076112;28;20083;-79
2023/11/14 01:23:57;;;;;;;38.95;7.20;;;12.00;99.90;;;;;;5073583;28;20521;-80
2023/11/14 01:26:25;;;;;;;36.72;7.00;;;12.00;99.90;;;;;;5074099;28;20083;-80
2023/11/14 01:28:52;;;;;;;30.77;5.75;;;12.00;99.90;;;;;;5074130;28;20045;-79
2023/11/14 01:31:21;;;;;;;38.20;6.07;;;12.00;99.90;;;;;;5073384;28;20076;-79
2023/11/14 01:33:48;;;;;;;41.83;5.82;;;12.00;99.90;;;;;;5056451;28;20112;-78
2023/11/14 01:36:15;;;;;;;34.60;7.80;;;12.00;99.90;;;;;;5073484;28;20036;-79
2023/11/14 01:38:42;;;;;;;25.85;4.50;;;12.00;99.90;;;;;;5055265;28;20457;-78
2023/11/14 01:41:08;;;;;;;41.13;9.40;;;12.00;99.90;;;;;;5073064;28;20511;-80
2023/11/14 01:43:47;;;;;;;37.47;5.97;;;12.00;99.90;;;;;;5054345;28;20068;-79
2023/11/14 01:46:16;;;;;;;35.92;5.50;;;12.00;99.90;;;;;;5072817;28;20076;-78
2023/11/14 01:48:47;;;;;;;31.65;5.38;;;11.90;99.90;;;;;;5073199;28;20396;-79
2023/11/14 01:51:14;;;;;;;28.50;5.20;;;12.00;99.90;;;;;;5072868;28;20048;-78
2023/11/14 01:53:41;;;;;;;39.42;6.82;;;12.00;99.90;;;;;;5053633;28;20469;-79
2023/11/14 01:56:08;;;;;;;36.92;6.18;;;12.00;99.90;;;;;;5071878;28;20048;-78
2023/11/14 01:58:35;;;;;;;38.92;5.53;;;12.00;99.90;;;;;;5054610;28;20056;-80
2023/11/14 02:01:03;;;;;;;37.85;5.70;;;12.00;99.90;;;;;;5072703;28;20076;-78
2023/11/14 02:03:29;;;;;;;30.70;6.68;;;11.90;99.90;;;;;;5055263;28;20054;-78
2023/11/14 02:05:56;;;;;;;37.88;7.05;;;11.90;99.90;;;;;;5037913;28;20106;-80
2023/11/14 02:08:23;;;;;;;37.45;5.18;;;11.90;99.90;;;;;;5073180;28;20094;-79
2023/11/14 02:10:50;;;;;;;32.20;5.95;;;11.90;99.90;;;;;;5054748;28;20048;-78
2023/11/14 02:13:17;;;;;;;39.03;7.80;;;11.90;99.90;;;;;;5072482;28;20036;-77
2023/11/14 02:15:44;;;;;;;29.77;6.38;;;11.90;99.90;;;;;;5072526;28;20102;-78
2023/11/14 02:18:10;;;;;;;54.78;7.72;;;12.00;99.90;;;;;;5073250;28;20392;-78
2023/11/14 02:20:37;;;;;;;26.48;5.68;;;11.90;99.90;;;;;;5071967;28;20040;-80
2023/11/14 02:23:06;;;;;;;28.67;6.75;;;11.90;99.90;;;;;;5061260;28;20052;-79
2023/11/14 02:25:32;;;;;;;22.08;4.18;;;11.90;99.90;;;;;;5074757;28;20040;-78
2023/11/14 02:27:59;;;;;;;25.42;5.43;;;11.80;99.90;;;;;;5037368;28;20041;-77
2023/11/14 02:30:26;;;;;;;34.63;5.25;;;11.80;99.90;;;;;;5055252;28;20072;-77
2023/11/14 02:32:53;;;;;;;56.97;8.43;;;11.90;99.90;;;;;;5050907;28;20074;-77
2023/11/14 02:35:20;;;;;;;27.60;5.78;;;11.80;99.90;;;;;;5069859;28;20048;-78
2023/11/14 02:37:46;;;;;;;31.58;4.40;;;11.80;99.90;;;;;;5071862;28;20586;-78
2023/11/14 02:40:13;;;;;;;52.13;6.03;;;11.80;99.90;;;;;;5072241;28;20132;-78
2023/11/14 02:42:43;;;;;;;38.60;5.93;;;11.80;99.90;;;;;;5072279;28;20131;-77
2023/11/14 02:45:13;;;;;;;31.40;6.03;;;11.80;99.90;;;;;;5052135;28;20099;-82
2023/11/14 02:47:40;;;;;;;37.58;5.28;;;11.80;99.90;;;;;;5067305;28;20048;-78
2023/11/14 02:50:53;;;;;;;33.90;5.97;;;11.80;99.90;;;;;;5071026;28;20085;-78
2023/11/14 02:53:20;;;;;;;42.95;6.00;;;11.80;99.90;;;;;;4716870;28;10001912;-79
2023/11/14 02:55:47;;;;;;;34.05;5.53;;;11.70;99.90;;;;;;5063161;28;20052;-78
2023/11/14 02:58:14;;;;;;;34.00;5.85;;;11.80;99.90;;;;;;5046863;28;20053;-78
2023/11/14 03:00:41;;;;;;;35.63;6.53;;;11.80;99.90;;;;;;5031322;28;20435;-80
2023/11/14 03:03:12;;;;;;;38.85;5.75;;;11.70;99.90;;;;;;5032772;28;20056;-78
2023/11/14 03:05:39;;;;;;;35.78;7.18;;;11.80;99.90;;;;;;5032114;28;20360;-79
2023/11/14 03:08:06;;;;;;;41.00;7.25;;;11.90;99.90;;;;;;5032350;28;20046;-79
2023/11/14 03:10:33;;;;;;;32.60;5.70;;;11.90;99.90;;;;;;5034269;28;20041;-78
2023/11/14 03:13:02;;;;;;;45.00;5.75;;;11.90;99.90;;;;;;5035750;28;20107;-78
2023/11/14 03:15:29;;;;;;;32.88;5.20;;;11.90;99.90;;;;;;5036763;28;20049;-77
2023/11/14 03:17:56;;;;;;;33.38;5.90;;;11.90;99.90;;;;;;5037660;28;20095;-78
2023/11/14 03:20:23;;;;;;;34.05;5.32;;;11.90;99.90;;;;;;5037875;28;20082;-78
2023/11/14 03:22:59;;;;;;;38.08;6.13;;;11.90;99.90;;;;;;5034609;28;20052;-78
2023/11/14 03:25:26;;;;;;;41.00;5.32;;;11.90;99.90;;;;;;5035572;28;20053;-79
2023/11/14 03:27:53;;;;;;;25.60;4.30;;;12.00;99.90;;;;;;5036901;28;20111;-77
2023/11/14 03:30:22;;;;;;;25.63;6.05;;;11.90;99.90;;;;;;5040478;28;20103;-80
2023/11/14 03:32:49;;;;;;;45.00;6.90;;;12.00;99.90;;;;;;5035995;28;20046;-79
2023/11/14 03:35:16;;;;;;;27.00;4.82;;;12.00;99.90;;;;;;5035486;28;20049;-79
2023/11/14 03:37:43;;;;;;;31.15;4.93;;;12.00;99.90;;;;;;5035785;28;20397;-79
2023/11/14 03:40:10;;;;;;;36.28;6.20;;;12.00;99.90;;;;;;5034889;28;20045;-78
2023/11/14 03:42:37;;;;;;;28.67;6.05;;;12.00;99.90;;;;;;5035763;28;20053;-78
2023/11/14 03:45:04;;;;;;;32.72;6.35;;;12.00;99.90;;;;;;5035932;28;20103;-78
2023/11/14 03:47:31;;;;;;;47.25;7.25;;;12.00;99.90;;;;;;5035466;28;20468;-79
2023/11/14 03:50:03;;;;;;;39.38;6.75;;;12.00;99.90;;;;;;5035041;28;20045;-80
2023/11/14 03:52:31;;;;;;;32.60;5.82;;;12.00;99.90;;;;;;5025028;28;20042;-81
2023/11/14 03:54:58;;;;;;;37.35;6.20;;;12.00;99.90;;;;;;5029831;28;20057;-78
2023/11/14 03:57:25;;;;;;;34.17;4.75;;;12.00;99.90;;;;;;5034098;28;20049;-79
2023/11/14 03:59:52;;;;;;;34.72;5.05;;;12.10;99.90;;;;;;5068854;28;20067;-79
2023/11/14 04:02:19;;;;;;;31.85;6.18;;;12.10;99.90;;;;;;5075185;28;20052;-78
2023/11/14 04:04:46;;;;;;;37.05;5.47;;;12.10;99.90;;;;;;5074123;28;20538;-79
2023/11/14 04:07:14;;;;;;;44.53;6.93;;;12.10;99.90;;;;;;5060157;28;20045;-80
2023/11/14 04:09:41;;;;;;;37.45;6.50;;;12.10;99.90;;;;;;5064905;28;20499;-79
2023/11/14 04:12:08;;;;;;;25.80;4.95;;;12.00;99.90;;;;;;5075168;28;20052;-78
2023/11/14 04:14:35;;;;;;;36.67;6.18;;;12.00;99.90;;;;;;5039585;28;20044;-81
2023/11/14 04:17:03;;;;;;;30.17;5.00;;;12.00;99.90;;;;;;5057115;28;20052;-78
2023/11/14 04:19:30;;;;;;;34.58;5.05;;;12.10;99.90;;;;;;5074268;28;20060;-79
2023/11/14 04:21:57;;;;;;;31.73;5.50;;;12.10;99.90;;;;;;5073980;28;20086;-77
2023/11/14 04:24:23;;;;;;;33.40;5.72;;;12.10;99.90;;;;;;5073683;28;20392;-78
2023/11/14 04:26:51;;;;;;;33.95;6.18;;;12.10;99.90;;;;;;5074434;28;20099;-79
2023/11/14 04:29:18;;;;;;;26.38;5.68;;;12.20;99.90;;;;;;5074380;28;20072;-79
2023/11/14 04:31:45;;;;;;;40.63;6.45;;;12.20;99.90;;;;;;5056400;28;20046;-78
2023/11/14 04:34:13;;;;;;;31.23;5.88;;;12.20;99.90;;;;;;5073338;28;20056;-78
2023/11/14 04:36:40;;;;;;;35.47;6.10;;;12.10;99.90;;;;;;5056004;28;20045;-79
2023/11/14 04:39:08;;;;;;;33.05;5.20;;;12.20;99.90;;;;;;5074690;28;20387;-77
2023/11/14 04:41:36;;;;;;;28.63;4.53;;;12.20;99.90;;;;;;5063297;28;20504;-79
2023/11/14 04:44:03;;;;;;;32.70;7.20;;;12.20;99.90;;;;;;5073829;28;20076;-79
2023/11/14 04:46:29;;;;;;;33.17;5.22;;;12.20;99.90;;;;;;5074341;28;20075;-80
2023/11/14 04:48:56;;;;;;;33.20;5.70;;;12.20;99.90;;;;;;5074306;28;20052;-79
2023/11/14 04:51:23;;;;;;;33.80;6.15;;;12.20;99.90;;;;;;5073000;28;20063;-78
2023/11/14 04:53:51;;;;;;;23.60;4.55;;;12.10;99.90;;;;;;5074282;28;20052;-79
2023/11/14 04:56:17;;;;;;;37.95;6.05;;;12.10;99.90;;;;;;5073912;28;20486;-79
2023/11/14 04:58:44;;;;;;;45.63;6.78;;;12.10;99.90;;;;;;5073911;28;20432;-79
2023/11/14 05:01:11;;;;;;;43.50;7.50;;;12.20;99.90;;;;;;5073412;28;20127;-79
2023/11/14 05:03:38;;;;;;;30.17;5.80;;;12.20;99.90;;;;;;5055870;28;20058;-79
2023/11/14 05:06:05;;;;;;;37.83;5.45;;;12.20;99.90;;;;;;5073368;28;20079;-79
2023/11/14 05:08:32;;;;;;;32.05;7.10;;;12.20;99.90;;;;;;5073094;28;20044;-80
2023/11/14 05:10:59;;;;;;;26.95;4.47;;;12.20;99.90;;;;;;5071276;28;20075;-79
2023/11/14 05:13:26;;;;;;;36.85;6.28;;;12.20;99.90;;;;;;5073461;28;20127;-78
2023/11/14 05:15:52;;;;;;;30.30;5.93;;;12.10;99.90;;;;;;5073036;28;20094;-78
2023/11/14 05:18:21;;;;;;;28.67;4.38;;;12.10;99.90;;;;;;5073103;28;20040;-78
2023/11/14 05:20:48;;;;;;;47.20;6.35;;;12.10;99.90;;;;;;5072908;28;20072;-78
2023/11/14 05:23:15;;;;;;;30.95;5.30;;;12.10;99.90;;;;;;5072083;28;20079;-77
2023/11/14 05:25:43;;;;;;;31.50;6.13;;;12.10;99.90;;;;;;5074111;28;20124;-79
2023/11/14 05:28:10;;;;;;;46.33;6.07;;;12.10;99.90;;;;;;5073189;28;20055;-78
2023/11/14 05:30:36;;;;;;;48.75;8.18;;;12.10;99.90;;;;;;5073196;28;20576;-78
2023/11/14 05:33:03;;;;;;;34.72;5.70;;;12.10;99.90;;;;;;5072424;28;20086;-77
2023/11/14 05:35:30;;;;;;;39.67;8.70;;;12.10;99.90;;;;;;5077367;28;20110;-77
2023/11/14 05:37:57;;;;;;;40.00;5.20;;;12.00;99.90;;;;;;5056442;28;20048;-78
2023/11/14 05:40:24;;;;;;;30.95;5.07;;;12.00;99.90;;;;;;5073917;28;20051;-78
2023/11/14 05:42:51;;;;;;;33.47;6.22;;;12.10;99.90;;;;;;5072689;28;20041;-77
2023/11/14 05:45:19;;;;;;;32.92;6.55;;;12.00;99.90;;;;;;5072669;28;20491;-78
2023/11/14 05:47:46;;;;;;;41.88;7.30;;;12.10;99.90;;;;;;5072496;28;20048;-79
2023/11/14 05:50:13;;;;;;;35.75;6.53;;;12.00;99.90;;;;;;5073008;28;20521;-80
2023/11/14 05:52:40;;;;;;;44.13;6.63;;;12.00;99.90;;;;;;5072896;28;20046;-78
2023/11/14 05:55:07;;;;;;;39.67;6.80;;;12.10;99.90;;;;;;5067639;28;20524;-79
2023/11/14 05:57:34;;;;;;;36.95;6.20;;;12.10;99.90;;;;;;5068147;28;20049;-79
2023/11/14 06:00:00;;;;;;;36.53;4.90;;;12.10;99.90;;;;;;5072988;28;20040;-79
2023/11/14 06:02:27;;;;;;;41.85;7.78;;;12.10;99.90;;;;;;5071117;28;20044;-78
2023/11/14 06:04:54;;;;;;;44.85;6.10;;;12.10;99.90;;;;;;5069166;28;20131;-79
2023/11/14 06:07:22;;;;;;;33.78;6.72;;;12.10;99.90;;;;;;5042750;28;20044;-79
2023/11/14 06:09:50;;;;;;;37.63;6.32;;;12.10;99.90;;;;;;5072090;28;20052;-79
2023/11/14 06:12:17;;;;;;;35.88;6.93;;;12.10;99.90;;;;;;5072566;28;20044;-78
2023/11/14 06:14:44;;;;;;;33.47;5.95;;;12.10;99.90;;;;;;5072756;28;20045;-79
2023/11/14 06:17:11;;;;;;;39.97;6.72;;;12.10;99.90;;;;;;5073231;28;20044;-79
2023/11/14 06:19:37;;;;;;;38.92;6.78;;;12.10;99.90;;;;;;5054375;28;20442;-79
2023/11/14 06:22:04;;;;;;;33.80;6.63;;;12.10;99.90;;;;;;5072836;28;20052;-80
2023/11/14 06:24:32;;;;;;;39.05;6.97;;;12.10;99.90;;;;;;5070716;28;20102;-80
2023/11/14 06:26:58;;;;;;;42.30;5.93;;;12.10;99.90;;;;;;5072823;28;20052;-81
2023/11/14 06:29:25;;;;;;;44.65;8.70;;;12.10;99.90;;;;;;5072146;28;20067;-80
2023/11/14 06:31:52;;;;;;;35.58;6.65;;;12.10;99.90;;;;;;5070913;28;20121;-79
2023/11/14 06:34:21;;;;;;;43.75;6.43;;;12.10;99.90;;;;;;5070530;28;20103;-80
2023/11/14 06:36:48;;;;;;;45.50;8.25;;;12.00;99.90;;;;;;5064207;28;20056;-81
2023/11/14 06:39:16;;;;;;;34.33;6.93;;;12.10;99.90;;;;;;5072935;28;20534;-80
2023/11/14 06:41:49;;;;;;;42.58;7.78;;;12.10;99.90;;;;;;5058510;28;20052;-79
2023/11/14 06:44:18;;;;;;;41.00;6.47;;;12.10;99.90;;;;;;5062020;28;20337;-80
2023/11/14 06:46:46;;;;;;;39.67;8.60;;;12.10;99.90;;;;;;5062550;28;20041;-79
2023/11/14 06:49:13;;;;;;;38.70;5.50;;;12.00;99.90;;;;;;5063258;28;20076;-79
2023/11/14 06:51:40;;;;;;;35.13;5.25;;;12.00;99.90;;;;;;5035780;28;20051;-79
2023/11/14 06:54:07;;;;;;;37.80;6.57;;;12.00;99.90;;;;;;5064126;28;20041;-77
2023/11/14 06:56:34;;;;;;;41.38;5.82;;;12.00;99.90;;;;;;5066455;28;20041;-79
2023/11/14 06:59:01;;;;;;;39.25;7.22;;;11.90;99.90;;;;;;5060839;28;20059;-79
2023/11/14 07:01:28;;;;;;;39.15;5.93;;;11.90;99.90;;;;;;5066547;28;20049;-79
2023/11/14 07:03:55;;;;;;;44.25;7.65;;;11.90;99.90;;;;;;5046211;28;20055;-79
2023/11/14 07:06:22;;;;;;;44.55;6.78;;;11.90;99.90;;;;;;5050830;28;20060;-80
2023/11/14 07:08:50;;;;;;;31.42;5.60;;;11.90;99.90;;;;;;5053924;28;20095;-79
2023/11/14 07:11:17;;;;;;;37.90;5.97;;;11.90;99.90;;;;;;5065127;28;20106;-72
2023/11/14 07:13:45;;;;;;;28.27;6.07;;;11.90;99.90;;;;;;5071666;28;20052;-77
2023/11/14 07:16:12;;;;;;;34.90;8.48;;;11.90;99.90;;;;;;5072053;28;20086;-79
2023/11/14 07:18:40;;;;;;;45.05;6.07;;;11.80;99.90;;;;;;5071609;28;20086;-80
2023/11/14 07:21:07;;;;;;;38.40;6.07;;;11.80;99.90;;;;;;5068951;28;21487;-79
2023/11/14 07:23:34;;;;;;;30.90;6.35;;;11.80;99.90;;;;;;5065912;28;20049;-82
2023/11/14 07:26:01;;;;;;;40.55;6.72;;;11.80;99.90;;;;;;5070348;28;20454;-79
2023/11/14 07:28:28;;;;;;;40.90;6.80;;;11.70;99.90;;;;;;5071817;28;20072;-81
2023/11/14 07:30:56;;;;;;;42.70;6.57;;;11.80;99.90;;;;;;5070783;28;20519;-77
2023/11/14 07:33:23;;;;;;;49.28;7.47;;;11.70;99.90;;;;;;5065245;28;20037;-77
2023/11/14 07:35:50;;;;;;;35.55;7.32;;;11.70;99.90;;;;;;5057469;28;20045;-75
2023/11/14 07:38:17;;;;;;;32.25;5.47;;;11.70;99.90;;;;;;5060336;28;20069;-75
2023/11/14 07:40:43;;;;;;;34.88;6.53;;;11.70;99.90;;;;;;5055336;28;20106;-75
2023/11/14 07:43:10;;;;;;;37.90;8.15;;;11.70;99.90;;;;;;5064130;28;20044;-75
2023/11/14 07:45:37;;;;;;;35.47;6.45;;;11.70;99.90;;;;;;5052353;28;20056;-77
2023/11/14 07:48:06;;;;;;;41.28;5.88;;;11.70;99.90;;;;;;5068338;28;20099;-76
2023/11/14 07:50:33;;;;;;;34.17;5.22;;;11.70;99.90;;;;;;5063068;28;20501;-72
2023/11/14 07:53:00;;;;;;;39.92;5.78;;;11.80;99.90;;;;;;5065063;28;20511;-76
2023/11/14 07:55:27;;;;;;;39.50;6.80;;;11.80;99.90;;;;;;5071331;28;20079;-75
2023/11/14 07:57:54;;;;;;;36.05;5.80;;;11.80;99.90;;;;;;5065281;28;20052;-74
2023/11/14 08:00:21;;;;;;;34.78;7.53;;;11.90;99.90;;;;;;5071463;28;20084;-75
2023/11/14 08:02:47;;;;;;;39.00;5.88;;;11.90;99.90;;;;;;5073416;28;20040;-75
2023/11/14 08:05:14;;;;;;;38.65;5.68;;;11.90;99.90;;;;;;5075298;28;20045;-75
2023/11/14 08:07:42;;;;;;;30.17;6.40;;;12.00;99.90;;;;;;5070318;28;20051;-68
2023/11/14 08:10:09;;;;;;;42.00;7.90;;;12.00;99.90;;;;;;5060442;28;20053;-76
2023/11/14 08:12:36;;;;;;;36.42;6.88;;;12.00;99.90;;;;;;5065505;28;20047;-76
2023/11/14 08:15:03;;;;;;;39.95;5.80;;;12.10;99.90;;;;;;5066639;28;20048;-78
2023/11/14 08:17:30;;;;;;;49.83;7.80;;;12.10;99.90;;;;;;5071712;28;20494;-76
2023/11/14 08:19:58;;;;;;;38.30;5.95;;;12.20;99.90;;;;;;5075652;28;20079;-76
2023/11/14 08:22:25;;;;;;;40.03;7.63;;;12.20;99.90;;;;;;5074653;28;20045;-77
2023/11/14 08:24:51;;;;;;;32.00;6.65;;;12.20;99.90;;;;;;5079079;28;20052;-78
2023/11/14 08:27:18;;;;;;;35.97;6.18;;;12.20;99.90;;;;;;5065018;28;20045;-78
2023/11/14 08:29:48;;;;;;;43.67;7.63;;;12.30;99.90;;;;;;5046378;28;20070;-78
2023/11/14 08:32:16;;;;;;;37.67;6.82;;;12.30;99.90;;;;;;5053600;28;20074;-64
2023/11/14 08:34:43;;;;;;;39.83;7.68;;;12.30;99.90;;;;;;5067937;28;20048;-78
2023/11/14 08:37:10;;;;;;;33.10;5.50;;;12.30;99.90;;;;;;5073247;28;20087;-77
2023/11/14 08:39:36;;;;;;;35.17;5.85;;;12.40;99.90;;;;;;5070846;28;20145;-77
2023/11/14 08:42:03;;;;;;;35.92;5.57;;;12.40;99.90;;;;;;5074568;28;20060;-77
2023/11/14 08:44:30;;;;;;;31.77;6.95;;;12.50;99.90;;;;;;5076254;28;20087;-79
2023/11/14 08:46:57;;;;;;;37.47;6.65;;;12.50;99.90;;;;;;5078441;28;20067;-78
2023/11/14 08:49:24;;;;;;;37.85;7.25;;;12.60;99.90;;;;;;5073230;28;20123;-79
2023/11/14 08:51:52;;;;;;;29.58;6.20;;;12.60;99.90;;;;;;5071545;28;20044;-77
2023/11/14 08:54:19;;;;;;;46.17;6.05;;;12.60;99.90;;;;;;5065728;28;20532;-78
2023/11/14 08:56:46;;;;;;;29.90;6.70;;;12.60;99.90;;;;;;5072696;28;20053;-78
2023/11/14 08:59:15;;;;;;;56.90;7.90;;;12.60;99.90;;;;;;5069406;28;20040;-77
2023/11/14 09:01:44;;;;;;;39.88;6.30;;;12.60;99.90;;;;;;5066219;28;20048;-77
2023/11/14 09:04:11;;;;;;;35.17;7.20;;;12.60;99.90;;;;;;5063926;28;20056;-78
2023/11/14 09:06:38;;;;;;;39.15;7.03;;;12.60;99.90;;;;;;5073674;28;20090;-77
2023/11/14 09:09:05;;;;;;;35.50;6.55;;;12.60;99.90;;;;;;5072846;28;20123;-78
2023/11/14 09:11:32;;;;;;;38.72;6.90;;;12.60;99.90;;;;;;5073307;28;20496;-77
2023/11/14 09:14:02;;;;;;;34.53;7.93;;;12.60;99.90;;;;;;5073013;28;20048;-78
2023/11/14 09:16:28;;;;;;;48.47;7.88;;;12.60;99.90;;;;;;5073096;28;20512;-78
2023/11/14 09:18:56;;;;;;;47.10;8.55;;;12.70;99.90;;;;;;5073747;28;20053;-78
2023/11/14 09:21:23;;;;;;;46.22;6.72;;;12.70;99.90;;;;;;5072219;28;20049;-78
2023/11/14 09:23:50;;;;;;;38.15;6.65;;;12.70;99.90;;;;;;5065133;28;20052;-78
2023/11/14 09:26:17;;;;;;;37.40;6.45;;;12.70;99.90;;;;;;5073353;28;20053;-78
2023/11/14 09:28:44;;;;;;;51.05;7.30;;;12.70;99.90;;;;;;5074168;28;20132;-77
2023/11/14 09:31:11;;;;;;;46.17;9.00;;;12.70;99.90;;;;;;5073405;28;20048;-77
2023/11/14 09:33:37;;;;;;;36.40;6.00;;;12.70;99.90;;;;;;5072991;28;20067;-79
2023/11/14 09:36:06;;;;;;;39.05;7.20;;;12.70;99.90;;;;;;5069936;28;20044;-79
2023/11/14 09:38:33;;;;;;;43.42;6.43;;;12.70;99.90;;;;;;5074229;28;20041;-78
2023/11/14 09:41:02;;;;;;;41.83;6.05;;;12.70;99.90;;;;;;5073285;28;20060;-79
2023/11/14 09:43:29;;;;;;;36.75;7.47;;;12.70;99.90;;;;;;5072947;28;20055;-78
2023/11/14 09:45:58;;;;;;;37.30;8.48;;;12.70;99.90;;;;;;5054746;28;20098;-78
2023/11/14 09:48:26;;;;;;;38.65;6.93;;;12.70;99.90;;;;;;5066543;28;20151;-78
2023/11/14 09:50:53;;;;;;;44.28;7.93;;;12.70;99.90;;;;;;5077290;28;20036;-78
2023/11/14 09:53:23;;;;;;;43.65;7.72;;;12.70;99.90;;;;;;5058453;28;20545;-78
2023/11/14 09:55:53;;;;;;;43.95;8.05;;;12.80;99.90;;;;;;5056347;28;20467;-79
2023/11/14 09:58:21;;;;;;;47.85;7.80;;;12.80;99.90;;;;;;5049588;28;20060;-79
2023/11/14 10:00:51;;;;;;;29.58;5.70;;;12.80;99.90;;;;;;5032036;28;20165;-78
2023/11/14 10:03:17;;;;;;;42.75;7.30;;;12.80;99.90;;;;;;5032206;28;20142;-78
2023/11/14 10:05:46;;;;;;;34.20;6.18;;;12.80;99.90;;;;;;5033051;28;20041;-77
2023/11/14 10:08:13;;;;;;;34.70;5.28;;;12.90;99.90;;;;;;5032523;28;20045;-79
2023/11/14 10:11:01;;;;;;;52.13;8.95;;;12.80;99.90;;;;;;5032766;28;20056;-77
2023/11/14 10:13:28;;;;;;;33.08;5.75;;;12.80;99.90;;;;;;5031578;28;20072;-78
2023/11/14 10:15:55;;;;;;;37.47;6.10;;;12.80;99.90;;;;;;5033648;28;20084;-79
2023/11/14 10:18:29;;;;;;;43.80;7.78;;;12.80;99.90;;;;;;5034247;28;20041;-78
2023/11/14 10:20:56;;;;;;;39.67;6.05;;;12.90;99.90;;;;;;5032764;28;20050;-79
2023/11/14 10:23:32;;;;;;;30.70;5.53;;;12.80;99.90;;;;;;5021261;28;20087;-79
2023/11/14 10:26:08;;;;;;;33.88;5.40;;;12.90;99.90;;;;;;5028927;28;20034;-78
2023/11/14 10:28:35;;;;;;;35.20;6.32;;;12.90;99.90;;;;;;5032761;28;20297;-78
2023/11/14 10:31:02;;;;;;;35.15;6.35;;;12.90;99.90;;;;;;5033211;28;20064;-79
2023/11/14 10:33:42;;;;;;;40.63;5.85;;;12.90;99.90;;;;;;5031989;28;20053;-79
2023/11/14 10:36:10;;;;;;;31.00;7.05;;;12.90;99.90;;;;;;5032580;28;20132;-78
2023/11/14 10:38:38;;;;;;;46.28;8.57;;;12.90;99.90;;;;;;5032640;28;20072;-79
2023/11/14 10:41:05;;;;;;;40.15;7.22;;;13.00;99.90;;;;;;5032468;28;20057;-78
2023/11/14 10:43:32;;;;;;;43.03;7.07;;;13.00;99.90;;;;;;5031681;28;20049;-79
2023/11/14 10:46:00;;;;;;;40.88;7.43;;;13.00;99.90;;;;;;5031330;28;20053;-78
2023/11/14 10:48:27;;;;;;;47.35;8.45;;;13.00;99.90;;;;;;5031819;28;20100;-79
2023/11/14 10:50:54;;;;;;;47.05;8.52;;;12.90;99.90;;;;;;5032868;28;20057;-79
2023/11/14 10:53:20;;;;;;;42.10;6.85;;;12.90;99.90;;;;;;5035056;28;20041;-80
2023/11/14 10:55:47;;;;;;;47.05;8.15;;;12.80;99.90;;;;;;5037098;28;20072;-79
2023/11/14 10:58:18;;;;;;;40.55;6.68;;;12.70;99.90;;;;;;5038024;28;20056;-79
2023/11/14 11:00:45;;;;;;;35.42;6.43;;;12.60;99.90;;;;;;5055749;28;20068;-77
2023/11/14 11:03:13;;;;;;;41.92;7.82;;;12.60;99.90;;;;;;5052896;28;20054;-78
2023/11/14 11:05:41;;;;;;;40.67;6.53;;;12.60;99.90;;;;;;5038226;28;20154;-79
2023/11/14 11:08:08;;;;;;;51.17;7.40;;;12.60;99.90;;;;;;5072733;28;20044;-79
2023/11/14 11:10:37;;;;;;;59.35;7.93;;;12.50;99.90;;;;;;5063533;28;20048;-80
2023/11/14 11:13:09;;;;;;;41.67;7.22;;;12.50;99.90;;;;;;5037304;28;21193;-79
2023/11/14 11:15:48;;;;;;;42.85;6.90;;;12.50;99.90;;;;;;5038557;28;20098;-79
2023/11/14 11:18:15;;;;;;;40.08;7.07;;;12.50;99.90;;;;;;5072491;28;20052;-79
2023/11/14 11:20:43;;;;;;;42.45;6.80;;;12.50;99.90;;;;;;5072109;28;20072;-80
2023/11/14 11:23:14;;;;;;;40.65;7.75;;;12.40;99.90;;;;;;5053428;28;20059;-79
2023/11/14 11:25:42;;;;;;;45.13;7.97;;;12.40;99.90;;;;;;5054522;28;20098;-80
2023/11/14 11:28:28;;;;;;;48.05;8.07;;;12.40;99.90;;;;;;5072220;28;20199;-80
2023/11/14 11:31:11;;;;;;;36.70;6.35;;;12.30;99.90;;;;;;5068662;28;20090;-77
2023/11/14 11:33:40;;;;;;;43.10;9.57;;;12.30;99.90;;;;;;5075136;28;20105;-79
2023/11/14 11:36:25;;;;;;;43.72;7.18;;;12.30;99.90;;;;;;5073797;28;20588;-81
2023/11/14 11:39:10;;;;;;;44.45;6.57;;;12.20;99.90;;;;;;5074810;28;20431;-80
2023/11/14 11:41:54;;;;;;;36.75;6.85;;;12.20;99.90;;;;;;5075577;28;20105;-79
2023/11/14 11:44:22;;;;;;;43.35;7.13;;;12.10;99.90;;;;;;5074212;28;20079;-78
2023/11/14 11:46:49;;;;;;;42.17;8.15;;;12.10;99.90;;;;;;5041333;28;20049;-79
2023/11/14 11:49:19;;;;;;;34.90;6.07;;;12.00;99.90;;;;;;5074384;28;20037;-75
2023/11/14 11:51:47;;;;;;;43.47;6.70;;;12.00;99.90;;;;;;5075648;28;20052;-76
2023/11/14 11:54:27;;;;;;;34.63;6.75;;;11.90;99.90;;;;;;5041179;28;20355;-76
2023/11/14 11:57:06;;;;;;;29.92;5.55;;;11.90;99.90;;;;;;5068735;28;20040;-77
2023/11/14 11:59:42;;;;;;;32.65;5.55;;;11.80;99.90;;;;;;5053490;28;20056;-76
2023/11/14 12:02:23;;;;;;;21.30;4.65;;;11.70;99.90;;;;;;5075059;28;20066;-77
2023/11/14 12:04:56;;;;;;;26.10;4.93;;;11.60;99.90;;;;;;5074452;28;20265;-77
2023/11/14 12:07:25;;;;;;;16.90;4.35;;;11.60;99.90;;;;;;5058045;28;20450;-77
2023/11/14 12:09:53;;;;;;;34.50;4.45;;;11.50;99.90;;;;;;5070857;28;20052;-76
2023/11/14 12:12:20;;;;;;;28.08;4.00;;;11.40;99.90;;;;;;5074590;28;20036;-76
2023/11/14 12:14:47;;;;;;;20.77;3.47;;;11.30;99.90;;;;;;5075268;28;20048;-76
2023/11/14 12:17:14;;;;;;;33.80;5.65;;;11.30;99.90;;;;;;5074102;28;20044;-77
2023/11/14 12:19:42;;;;;;;22.83;3.83;;;11.30;99.90;;;;;;5074457;28;20041;-77
2023/11/14 12:22:11;;;;;;;20.75;4.60;;;11.20;99.90;;;;;;5074457;28;20064;-79
2023/11/14 12:24:37;;;;;;;23.70;4.43;;;11.20;99.90;;;;;;5040785;28;20102;-80
2023/11/14 12:27:04;;;;;;;23.35;3.38;;;11.20;99.90;;;;;;5072723;28;20045;-80
2023/11/14 12:29:31;;;;;;;20.77;4.00;;;11.20;99.90;;;;;;5056588;28;20344;-79
2023/11/14 12:31:58;;;;;;;17.70;3.65;;;11.20;99.90;;;;;;5074290;28;20049;-78
2023/11/14 12:34:31;;;;;;;17.60;3.92;;;11.20;99.90;;;;;;5073869;28;20071;-79
2023/11/14 12:37:12;;;;;;;13.18;3.22;;;11.20;99.90;;;;;;5073207;28;20117;-80
2023/11/14 12:39:39;;;;;;;9.30;2.42;;;11.10;99.90;;;;;;5075539;28;20079;-80
2023/11/14 12:42:06;;;;;;;8.73;1.50;;;10.80;99.90;;;;;;5074063;28;20502;-80